Columbus City, Iowa
Current Conditions -  °F | °C
As of 8:15 AM on Friday 24 Oct 2014 (Local Time) from KMUT Reporting Station
Moderate Fog Moderate Fog  
Wind Chill: 10°   Ceiling: 200
Heat Index: 10°   Visibility: 0mi
Dew Point: 10°   Wind: 8mph
Humidity: 100%   Direction: 180°S
Pressure: 30.07"   Gusts: NA
Location:  41.26°N, 91.37°W
Report Text: KMUT 241315Z AUTO 18007KT M1/4SM FG OVC002 10/10 A3007 RMK AO2
Loading
Personal Weather Stations






























Interactive Weather Map
Tropical Storm Tracking
New forecast layout! Learn more

10-Day Weather Forecast

Advertisements
Track Severe Weather on mobile